createdAt,value
2019-05-19T00:01:10.561Z,12.30
2019-05-19T00:03:12.236Z,12.20
2019-05-19T00:05:14.019Z,12.20
2019-05-19T00:07:16.090Z,12.10
2019-05-19T00:09:17.753Z,12.10
2019-05-19T00:11:19.436Z,12.00
2019-05-19T00:13:21.088Z,11.80
2019-05-19T00:15:22.776Z,11.80
2019-05-19T00:17:24.448Z,11.80
2019-05-19T00:19:27.127Z,11.80
2019-05-19T00:21:29.097Z,11.80
2019-05-19T00:23:30.752Z,11.80
2019-05-19T00:25:33.175Z,11.80
2019-05-19T00:27:34.922Z,11.80
2019-05-19T00:29:36.593Z,11.70
2019-05-19T00:31:38.265Z,11.80
2019-05-19T00:33:39.937Z,11.70
2019-05-19T00:35:41.617Z,11.80
2019-05-19T00:37:43.281Z,11.80
2019-05-19T00:39:44.947Z,11.70
2019-05-19T00:41:46.613Z,11.60
2019-05-19T00:43:48.615Z,11.30
2019-05-19T00:45:50.564Z,11.10
2019-05-19T00:47:52.236Z,11.20
2019-05-19T00:49:53.916Z,11.20
2019-05-19T00:51:55.901Z,11.30
2019-05-19T00:53:57.574Z,11.40
2019-05-19T00:55:59.305Z,11.40
2019-05-19T00:58:01.237Z,11.40
2019-05-19T01:00:03.533Z,11.30
2019-05-19T01:02:05.205Z,11.30
2019-05-19T01:04:06.873Z,11.30
2019-05-19T01:06:08.661Z,11.30
2019-05-19T01:08:10.585Z,11.30
2019-05-19T01:10:12.540Z,11.30
2019-05-19T01:12:14.204Z,11.20
2019-05-19T01:14:16.216Z,11.00
2019-05-19T01:16:17.892Z,10.90
2019-05-19T01:18:19.578Z,10.90
2019-05-19T01:20:21.259Z,10.90
2019-05-19T01:22:23.025Z,10.90
2019-05-19T01:24:24.681Z,11.00
2019-05-19T01:26:26.368Z,11.00
2019-05-19T01:28:28.024Z,11.10
2019-05-19T01:30:29.705Z,11.10
2019-05-19T01:32:31.373Z,11.10
2019-05-19T01:34:33.042Z,11.00
2019-05-19T01:36:34.700Z,11.00
2019-05-19T01:38:36.697Z,10.80
2019-05-19T01:40:38.717Z,10.70
2019-05-19T01:42:40.629Z,10.60
2019-05-19T01:44:42.306Z,10.60
2019-05-19T01:46:43.993Z,10.60
2019-05-19T01:48:45.664Z,10.70
2019-05-19T01:50:47.342Z,10.60
2019-05-19T01:52:49.021Z,10.60
2019-05-19T01:54:50.891Z,10.70
2019-05-19T01:56:52.899Z,10.70
2019-05-19T01:58:54.905Z,10.80
2019-05-19T02:00:56.591Z,10.70
2019-05-19T02:02:58.251Z,10.70
2019-05-19T02:05:00.421Z,10.70
2019-05-19T02:07:02.393Z,10.60
2019-05-19T02:09:05.888Z,10.60
2019-05-19T02:11:07.561Z,10.60
2019-05-19T02:13:09.233Z,10.60
2019-05-19T02:15:10.905Z,10.60
2019-05-19T02:17:12.579Z,10.60
2019-05-19T02:19:14.247Z,10.60
2019-05-19T02:21:15.924Z,10.50
2019-05-19T02:23:17.590Z,10.50
2019-05-19T02:25:19.310Z,10.60
2019-05-19T02:27:21.357Z,10.60
2019-05-19T02:29:23.009Z,10.60
2019-05-19T02:31:24.684Z,10.50
2019-05-19T02:33:26.346Z,10.50
2019-05-19T02:35:28.171Z,10.50
2019-05-19T02:37:29.856Z,10.50
2019-05-19T02:39:31.513Z,10.50
2019-05-19T02:41:33.181Z,10.60
2019-05-19T02:43:34.962Z,10.60
2019-05-19T02:45:36.636Z,10.70
2019-05-19T02:47:39.239Z,10.70
2019-05-19T02:49:40.892Z,10.60
2019-05-19T02:51:42.934Z,10.60
2019-05-19T02:53:44.608Z,10.60
2019-05-19T02:55:46.461Z,10.60
2019-05-19T02:57:48.142Z,10.50
2019-05-19T02:59:49.967Z,10.40
2019-05-19T03:02:02.953Z,10.30
2019-05-19T03:04:04.713Z,10.40
2019-05-19T03:06:06.381Z,10.40
2019-05-19T03:08:08.162Z,10.50
2019-05-19T03:10:10.281Z,10.50
2019-05-19T03:12:11.954Z,10.50
2019-05-19T03:14:13.625Z,10.50
2019-05-19T03:16:15.295Z,10.50
2019-05-19T03:18:16.975Z,10.50
2019-05-19T03:20:18.950Z,10.40
2019-05-19T03:22:20.631Z,10.40
2019-05-19T03:24:22.298Z,10.50
2019-05-19T03:26:23.969Z,10.50
2019-05-19T03:28:25.646Z,10.40
2019-05-19T03:30:49.977Z,10.50
2019-05-19T03:32:55.382Z,10.40
2019-05-19T03:34:57.354Z,10.40
2019-05-19T03:36:59.378Z,10.50
2019-05-19T03:39:01.054Z,10.50
2019-05-19T03:41:02.729Z,10.50
2019-05-19T03:43:04.408Z,10.50
2019-05-19T03:45:06.100Z,10.50
2019-05-19T03:47:07.907Z,10.50
2019-05-19T03:49:09.578Z,10.50
2019-05-19T03:51:27.512Z,10.50
2019-05-19T03:53:14.809Z,10.60
2019-05-19T03:55:16.478Z,10.60
2019-05-19T03:57:18.164Z,10.60
2019-05-19T03:59:19.923Z,10.60
2019-05-19T04:01:21.580Z,10.60
2019-05-19T04:03:23.508Z,10.60
2019-05-19T04:05:25.433Z,10.50
2019-05-19T04:07:27.104Z,10.50
2019-05-19T04:09:28.770Z,10.40
2019-05-19T04:11:30.435Z,10.40
2019-05-19T04:13:32.115Z,10.40
2019-05-19T04:15:33.769Z,10.40
2019-05-19T04:17:35.432Z,10.50
2019-05-19T04:19:37.100Z,10.50
2019-05-19T04:21:48.344Z,10.60
2019-05-19T04:23:43.397Z,10.60
2019-05-19T04:25:45.066Z,10.70
2019-05-19T04:27:46.753Z,10.80
2019-05-19T04:29:48.542Z,10.80
2019-05-19T04:31:50.278Z,10.80
2019-05-19T04:33:51.954Z,10.80
2019-05-19T04:35:57.302Z,10.80
2019-05-19T04:37:57.198Z,10.90
2019-05-19T04:39:58.866Z,10.90
2019-05-19T04:42:00.533Z,11.00
2019-05-19T04:44:02.324Z,11.00
2019-05-19T04:46:03.997Z,11.10
2019-05-19T04:48:09.345Z,11.20
2019-05-19T04:50:09.240Z,11.20
2019-05-19T04:52:11.006Z,11.20
2019-05-19T04:54:12.690Z,11.30
2019-05-19T04:56:14.786Z,11.40
2019-05-19T04:58:16.468Z,11.40
2019-05-19T05:00:18.114Z,11.50
2019-05-19T05:02:19.793Z,11.60
2019-05-19T05:04:21.816Z,11.60
2019-05-19T05:06:23.574Z,11.70
2019-05-19T05:08:30.332Z,11.70
2019-05-19T05:10:28.913Z,11.80
2019-05-19T05:12:30.584Z,11.90
2019-05-19T05:14:32.265Z,11.90
2019-05-19T05:16:34.233Z,12.00
2019-05-19T05:18:36.013Z,12.10
2019-05-19T05:20:37.685Z,12.10
2019-05-19T05:22:39.353Z,12.20
2019-05-19T05:24:41.029Z,12.30
2019-05-19T05:26:42.694Z,12.40
2019-05-19T05:28:44.357Z,12.60
2019-05-19T05:30:46.022Z,12.70
2019-05-19T05:32:47.714Z,12.90
2019-05-19T05:34:49.377Z,13.10
2019-05-19T05:36:51.131Z,13.10
2019-05-19T05:38:52.867Z,13.30
2019-05-19T05:40:54.529Z,13.40
2019-05-19T05:42:56.214Z,13.60
2019-05-19T05:44:57.889Z,13.80
2019-05-19T05:46:59.556Z,14.10
2019-05-19T05:49:01.238Z,14.30
2019-05-19T05:51:02.933Z,14.40
2019-05-19T05:53:04.605Z,14.60
2019-05-19T05:55:06.270Z,14.60
2019-05-19T05:57:08.234Z,14.80
2019-05-19T05:59:09.926Z,14.80
2019-05-19T06:01:11.590Z,14.90
2019-05-19T06:03:13.271Z,15.00
2019-05-19T06:05:14.937Z,15.00
2019-05-19T06:07:16.606Z,15.00
2019-05-19T06:09:18.280Z,15.20
2019-05-19T06:11:19.945Z,15.20
2019-05-19T06:13:21.637Z,15.30
2019-05-19T06:15:23.356Z,15.50
2019-05-19T06:17:25.088Z,15.50
2019-05-19T06:19:26.761Z,15.60
2019-05-19T06:21:28.430Z,15.90
2019-05-19T06:23:30.106Z,16.10
2019-05-19T06:25:31.882Z,16.20
2019-05-19T06:27:33.973Z,16.40
2019-05-19T06:29:35.653Z,16.50
2019-05-19T06:31:37.459Z,16.30
2019-05-19T06:33:39.124Z,16.80
2019-05-19T06:35:40.790Z,16.90
2019-05-19T06:37:42.455Z,17.10
2019-05-19T06:39:44.133Z,17.30
2019-05-19T06:41:46.108Z,17.50
2019-05-19T06:43:47.797Z,17.80
2019-05-19T06:45:49.465Z,18.00
2019-05-19T06:47:51.160Z,18.40
2019-05-19T06:49:52.906Z,18.50
2019-05-19T06:51:54.574Z,18.80
2019-05-19T06:53:56.258Z,19.00
2019-05-19T06:55:58.010Z,18.80
2019-05-19T06:57:59.690Z,18.90
2019-05-19T07:00:01.419Z,18.60
2019-05-19T07:02:03.545Z,18.90
2019-05-19T07:04:05.223Z,19.30
2019-05-19T07:06:06.886Z,19.50
2019-05-19T07:08:08.549Z,19.70
2019-05-19T07:10:10.216Z,19.60
2019-05-19T07:12:12.226Z,19.90
2019-05-19T07:14:13.994Z,19.80
2019-05-19T07:16:15.657Z,20.10
2019-05-19T07:18:17.322Z,20.40
2019-05-19T07:20:18.992Z,20.20
2019-05-19T07:22:20.661Z,20.30
2019-05-19T07:24:22.342Z,20.20
2019-05-19T07:26:24.000Z,20.40
2019-05-19T07:28:25.666Z,20.20
2019-05-19T07:30:27.341Z,20.50
2019-05-19T07:32:29.013Z,20.60
2019-05-19T07:34:30.710Z,20.70
2019-05-19T07:36:32.469Z,21.00
2019-05-19T07:38:34.116Z,21.30
2019-05-19T07:40:35.830Z,21.20
2019-05-19T07:42:37.593Z,21.20
2019-05-19T07:44:39.275Z,21.30
2019-05-19T07:46:40.946Z,21.20
2019-05-19T07:48:42.608Z,21.60
2019-05-19T07:50:44.731Z,21.60
2019-05-19T07:52:46.403Z,21.50
2019-05-19T07:54:48.073Z,21.70
2019-05-19T07:56:49.785Z,21.40
2019-05-19T07:58:51.449Z,21.50
2019-05-19T08:00:53.145Z,21.70
2019-05-19T08:02:54.900Z,22.20
2019-05-19T08:04:56.582Z,22.20
2019-05-19T08:06:58.245Z,22.10
2019-05-19T08:08:59.900Z,22.30
2019-05-19T08:11:01.687Z,21.90
2019-05-19T08:13:03.562Z,22.10
2019-05-19T08:15:05.653Z,22.20
2019-05-19T08:17:07.339Z,22.50
2019-05-19T08:19:09.701Z,22.60
2019-05-19T08:21:11.399Z,22.30
2019-05-19T08:23:13.066Z,22.80
2019-05-19T08:25:14.805Z,23.00
2019-05-19T08:27:16.720Z,23.30
2019-05-19T08:29:18.676Z,23.20
2019-05-19T08:31:20.359Z,23.00
2019-05-19T08:33:22.326Z,22.60
2019-05-19T08:35:24.093Z,23.00
2019-05-19T08:37:26.101Z,23.20
2019-05-19T08:39:27.761Z,22.30
2019-05-19T08:41:30.402Z,23.00
2019-05-19T08:43:32.082Z,23.00
2019-05-19T08:45:34.041Z,22.90
2019-05-19T08:47:35.985Z,23.30
2019-05-19T08:49:37.656Z,23.70
2019-05-19T08:51:39.331Z,23.90
2019-05-19T08:53:40.997Z,24.00
2019-05-19T08:55:42.685Z,23.70
2019-05-19T08:57:44.354Z,24.10
2019-05-19T08:59:46.004Z,23.90
2019-05-19T09:01:47.678Z,23.60
2019-05-19T09:03:49.346Z,23.70
2019-05-19T09:05:51.277Z,24.40
2019-05-19T09:07:52.944Z,24.00
2019-05-19T09:09:54.621Z,24.60
2019-05-19T09:11:56.569Z,24.30
2019-05-19T09:13:58.246Z,24.50
2019-05-19T09:16:00.225Z,24.30
2019-05-19T09:18:02.173Z,25.20
2019-05-19T09:20:03.988Z,25.30
2019-05-19T09:22:05.657Z,25.70
2019-05-19T09:24:07.329Z,25.40
2019-05-19T09:26:09.325Z,25.30
2019-05-19T09:28:11.098Z,25.50
2019-05-19T09:30:12.773Z,25.30
2019-05-19T09:32:14.443Z,25.50
2019-05-19T09:34:16.105Z,24.80
2019-05-19T09:36:17.781Z,25.20
2019-05-19T09:38:19.438Z,25.30
2019-05-19T09:40:21.112Z,24.70
2019-05-19T09:42:22.788Z,25.00
2019-05-19T09:44:24.557Z,24.80
2019-05-19T09:46:26.226Z,24.20
2019-05-19T09:48:27.901Z,24.50
2019-05-19T09:50:29.864Z,24.30
2019-05-19T09:52:31.620Z,25.10
2019-05-19T09:54:44.182Z,24.80
2019-05-19T09:56:37.202Z,25.30
2019-05-19T09:58:39.355Z,25.20
2019-05-19T10:00:41.025Z,24.90
2019-05-19T10:02:42.681Z,25.60
2019-05-19T10:04:44.368Z,26.30
2019-05-19T10:06:46.057Z,25.80
2019-05-19T10:08:53.588Z,26.40
2019-05-19T10:11:22.952Z,27.10
2019-05-19T10:13:24.800Z,26.70
2019-05-19T10:15:26.468Z,26.20
2019-05-19T10:17:28.221Z,26.00
2019-05-19T10:19:29.891Z,24.60
2019-05-19T10:21:31.569Z,24.50
2019-05-19T10:23:33.224Z,24.40
2019-05-19T10:25:34.893Z,23.60
2019-05-19T10:27:36.564Z,23.20
2019-05-19T10:29:38.315Z,23.30
2019-05-19T10:31:40.127Z,23.20
2019-05-19T10:33:41.815Z,22.90
2019-05-19T10:35:43.561Z,23.10
2019-05-19T10:37:45.238Z,23.20
2019-05-19T10:39:46.903Z,23.00
2019-05-19T10:41:48.853Z,23.00
2019-05-19T10:44:00.724Z,22.90
2019-05-19T10:46:02.385Z,22.80
2019-05-19T10:48:04.145Z,22.90
2019-05-19T10:50:06.229Z,22.60
2019-05-19T10:52:07.924Z,23.60
2019-05-19T10:54:09.675Z,23.60
2019-05-19T10:56:11.360Z,23.20
2019-05-19T10:58:13.005Z,23.00
2019-05-19T11:00:14.989Z,22.90
2019-05-19T11:02:16.691Z,22.80
2019-05-19T11:04:18.358Z,23.10
2019-05-19T11:06:20.269Z,22.80
2019-05-19T11:08:21.928Z,22.80
2019-05-19T11:10:23.599Z,22.80
2019-05-19T11:12:25.260Z,22.40
2019-05-19T11:14:26.929Z,22.40
2019-05-19T11:16:28.605Z,22.50
2019-05-19T11:18:30.838Z,22.50
2019-05-19T11:20:35.027Z,22.40
2019-05-19T11:22:36.877Z,22.60
2019-05-19T11:24:38.532Z,22.80
2019-05-19T11:26:40.224Z,23.60
2019-05-19T11:28:41.889Z,24.70
2019-05-19T11:30:43.571Z,25.10
2019-05-19T11:32:45.233Z,25.30
2019-05-19T11:34:47.160Z,25.60
2019-05-19T11:36:49.128Z,25.70
2019-05-19T11:38:51.457Z,25.20
2019-05-19T11:40:53.113Z,24.80
2019-05-19T11:42:54.796Z,24.80
2019-05-19T11:44:56.473Z,24.90
2019-05-19T11:46:58.401Z,25.20
2019-05-19T11:49:00.061Z,25.90
2019-05-19T11:51:01.730Z,26.90
2019-05-19T11:53:03.408Z,26.50
2019-05-19T11:55:05.065Z,26.90
2019-05-19T11:57:06.746Z,26.50
2019-05-19T11:59:08.709Z,27.40
2019-05-19T12:01:10.396Z,27.60
2019-05-19T12:03:12.060Z,27.80
2019-05-19T12:05:13.724Z,26.50
2019-05-19T12:07:15.402Z,26.70
2019-05-19T12:09:17.070Z,26.50
2019-05-19T12:11:18.837Z,26.30
2019-05-19T12:13:20.556Z,26.10
2019-05-19T12:15:22.224Z,25.90
2019-05-19T12:17:23.901Z,25.80
2019-05-19T12:19:25.568Z,25.80
2019-05-19T12:21:27.241Z,25.60
2019-05-19T12:23:29.170Z,25.70
2019-05-19T12:25:31.225Z,26.80
2019-05-19T12:27:33.626Z,27.50
2019-05-19T12:29:35.295Z,28.20
2019-05-19T12:31:36.966Z,28.00
2019-05-19T12:33:51.026Z,26.90
2019-05-19T12:35:42.214Z,25.80
2019-05-19T12:37:43.888Z,25.90
2019-05-19T12:39:45.545Z,25.40
2019-05-19T12:41:47.208Z,25.70
2019-05-19T12:43:48.896Z,25.90
2019-05-19T12:45:50.586Z,26.70
2019-05-19T12:47:52.354Z,26.50
2019-05-19T12:49:54.002Z,26.80
2019-05-19T12:51:55.664Z,27.10
2019-05-19T12:53:57.630Z,27.80
2019-05-19T12:55:59.545Z,27.30
2019-05-19T12:58:01.551Z,28.20
2019-05-19T13:00:03.282Z,27.30
2019-05-19T13:02:04.948Z,27.70
2019-05-19T13:04:06.625Z,26.80
2019-05-19T13:06:08.409Z,27.30
2019-05-19T13:08:11.610Z,27.50
2019-05-19T13:10:13.561Z,28.10
2019-05-19T13:12:15.221Z,28.40
2019-05-19T13:14:16.892Z,28.40
2019-05-19T13:16:18.561Z,27.60
2019-05-19T13:18:20.634Z,26.60
2019-05-19T13:20:22.625Z,26.80
2019-05-19T13:22:24.358Z,27.00
2019-05-19T13:24:26.030Z,26.90
2019-05-19T13:26:27.697Z,26.80
2019-05-19T13:28:29.402Z,27.10
2019-05-19T13:30:31.066Z,27.30
2019-05-19T13:32:32.769Z,27.00
2019-05-19T13:34:34.766Z,27.00
2019-05-19T13:36:36.422Z,27.10
2019-05-19T13:38:38.104Z,27.30
2019-05-19T13:40:39.770Z,27.00
2019-05-19T13:42:41.424Z,26.90
2019-05-19T13:44:43.108Z,26.50
2019-05-19T13:46:44.781Z,26.50
2019-05-19T13:48:46.444Z,26.60
2019-05-19T13:50:48.114Z,26.50
2019-05-19T13:52:51.325Z,26.60
2019-05-19T13:54:53.350Z,26.70
2019-05-19T13:56:55.005Z,26.70
2019-05-19T13:58:56.685Z,26.80
2019-05-19T14:00:58.349Z,26.70
2019-05-19T14:03:00.026Z,26.60
2019-05-19T14:05:01.705Z,26.90
2019-05-19T14:07:03.380Z,27.10
2019-05-19T14:09:05.152Z,27.20
2019-05-19T14:11:06.845Z,26.40
2019-05-19T14:13:08.522Z,27.00
2019-05-19T14:15:10.192Z,26.50
2019-05-19T14:17:11.867Z,26.90
2019-05-19T14:19:13.974Z,27.20
2019-05-19T14:21:15.637Z,27.50
2019-05-19T14:23:17.308Z,27.80
2019-05-19T14:25:18.982Z,27.00
2019-05-19T14:27:29.203Z,26.80
2019-05-19T14:29:24.239Z,27.40
2019-05-19T14:31:26.034Z,26.90
2019-05-19T14:33:28.101Z,26.90
2019-05-19T14:35:29.767Z,26.60
2019-05-19T14:37:31.432Z,26.50
2019-05-19T14:39:33.362Z,27.10
2019-05-19T14:41:42.954Z,27.00
2019-05-19T14:43:44.649Z,27.00
2019-05-19T14:45:46.416Z,26.70
2019-05-19T14:47:48.077Z,26.50
2019-05-19T14:49:49.758Z,26.50
2019-05-19T14:51:51.417Z,26.60
2019-05-19T14:53:53.111Z,26.60
2019-05-19T14:55:54.784Z,26.40
2019-05-19T14:57:56.450Z,26.10
2019-05-19T14:59:58.125Z,26.20
2019-05-19T15:01:59.789Z,26.40
2019-05-19T15:04:01.463Z,26.70
2019-05-19T15:06:03.129Z,26.80
2019-05-19T15:08:04.807Z,26.70
2019-05-19T15:10:07.075Z,27.20
2019-05-19T15:12:08.746Z,26.70
2019-05-19T15:14:10.425Z,26.80
2019-05-19T15:16:12.414Z,27.30
2019-05-19T15:18:14.090Z,26.60
2019-05-19T15:20:15.801Z,26.40
2019-05-19T15:22:17.533Z,25.80
2019-05-19T15:24:19.219Z,26.50
2019-05-19T15:26:20.886Z,25.60
2019-05-19T15:28:22.841Z,25.70
2019-05-19T15:30:24.521Z,25.80
2019-05-19T15:32:26.189Z,25.70
2019-05-19T15:34:27.865Z,25.70
2019-05-19T15:36:29.525Z,25.80
2019-05-19T15:38:31.228Z,25.70
2019-05-19T15:40:33.081Z,25.80
2019-05-19T15:42:35.004Z,25.80
2019-05-19T15:44:36.700Z,25.50
2019-05-19T15:46:38.353Z,25.70
2019-05-19T15:48:40.026Z,25.70
2019-05-19T15:50:41.701Z,25.70
2019-05-19T15:52:43.688Z,25.40
2019-05-19T15:54:45.364Z,25.50
2019-05-19T15:56:47.025Z,25.50
2019-05-19T15:58:48.714Z,25.60
2019-05-19T16:00:50.390Z,25.60
2019-05-19T16:02:52.365Z,25.70
2019-05-19T16:04:54.045Z,25.40
2019-05-19T16:06:55.705Z,25.40
2019-05-19T16:08:57.374Z,24.90
2019-05-19T16:10:59.046Z,25.20
2019-05-19T16:13:00.708Z,25.10
2019-05-19T16:15:02.702Z,25.00
2019-05-19T16:17:04.457Z,25.10
2019-05-19T16:19:06.125Z,24.70
2019-05-19T16:21:07.856Z,24.70
2019-05-19T16:23:09.521Z,24.70
2019-05-19T16:25:11.449Z,24.80
2019-05-19T16:27:13.129Z,24.90
2019-05-19T16:29:14.877Z,24.80
2019-05-19T16:31:16.554Z,24.70
2019-05-19T16:33:18.229Z,24.50
2019-05-19T16:35:20.526Z,24.40
2019-05-19T16:37:22.213Z,24.30
2019-05-19T16:39:23.969Z,24.40
2019-05-19T16:41:25.651Z,24.10
2019-05-19T16:43:27.553Z,24.30
2019-05-19T16:45:29.233Z,24.30
2019-05-19T16:47:30.944Z,24.00
2019-05-19T16:49:32.726Z,24.10
2019-05-19T16:51:34.407Z,24.20
2019-05-19T16:53:36.412Z,24.20
2019-05-19T16:55:38.447Z,24.10
2019-05-19T16:57:40.181Z,24.00
2019-05-19T16:59:42.193Z,24.10
2019-05-19T17:01:43.861Z,23.90
2019-05-19T17:03:45.533Z,23.90
2019-05-19T17:05:47.213Z,24.00
2019-05-19T17:07:48.873Z,24.10
2019-05-19T17:09:50.860Z,24.10
2019-05-19T17:11:52.520Z,24.20
2019-05-19T17:13:54.184Z,23.80
2019-05-19T17:15:55.857Z,24.00
2019-05-19T17:17:57.537Z,23.80
2019-05-19T17:19:59.506Z,24.00
2019-05-19T17:22:01.173Z,23.90
2019-05-19T17:24:03.140Z,23.90
2019-05-19T17:26:05.437Z,23.90
2019-05-19T17:28:07.102Z,23.90
2019-05-19T17:30:09.065Z,23.90
2019-05-19T17:32:10.982Z,23.70
2019-05-19T17:34:12.658Z,23.80
2019-05-19T17:36:14.345Z,23.90
2019-05-19T17:38:16.266Z,23.90
2019-05-19T17:40:18.206Z,23.90
2019-05-19T17:42:20.434Z,23.90
2019-05-19T17:44:22.141Z,23.90
2019-05-19T17:46:24.595Z,23.80
2019-05-19T17:48:27.048Z,23.90
2019-05-19T17:50:30.693Z,23.80
2019-05-19T17:52:32.348Z,23.70
2019-05-19T17:54:34.017Z,23.60
2019-05-19T17:56:35.740Z,23.60
2019-05-19T17:58:37.465Z,23.50
2019-05-19T18:00:39.958Z,23.40
2019-05-19T18:02:41.640Z,23.30
2019-05-19T18:04:43.733Z,23.20
2019-05-19T18:06:45.668Z,23.20
2019-05-19T18:08:47.328Z,23.10
2019-05-19T18:10:49.005Z,22.90
2019-05-19T18:12:50.980Z,22.90
2019-05-19T18:14:52.939Z,22.90
2019-05-19T18:16:54.617Z,22.80
2019-05-19T18:18:56.548Z,22.70
2019-05-19T18:20:58.229Z,22.60
2019-05-19T18:23:00.165Z,22.60
2019-05-19T18:25:01.871Z,22.50
2019-05-19T18:27:03.548Z,22.40
2019-05-19T18:29:05.824Z,22.40
2019-05-19T18:31:07.488Z,22.30
2019-05-19T18:33:09.162Z,22.20
2019-05-19T18:35:10.934Z,22.20
2019-05-19T18:37:13.556Z,22.10
2019-05-19T18:39:15.582Z,22.00
2019-05-19T18:41:17.265Z,22.00
2019-05-19T18:43:18.939Z,22.00
2019-05-19T18:45:20.618Z,22.00
2019-05-19T18:47:22.297Z,21.90
2019-05-19T18:49:23.962Z,21.90
2019-05-19T18:51:25.888Z,21.90
2019-05-19T18:53:27.856Z,21.80
2019-05-19T18:55:29.912Z,21.70
2019-05-19T18:57:31.754Z,21.60
2019-05-19T18:59:46.480Z,21.60
2019-05-19T19:01:36.994Z,21.50
2019-05-19T19:03:38.662Z,21.40
2019-05-19T19:05:40.625Z,21.40
2019-05-19T19:07:51.040Z,21.40
2019-05-19T19:09:52.709Z,21.30
2019-05-19T19:11:54.682Z,21.20
2019-05-19T19:13:56.354Z,21.00
2019-05-19T19:15:58.032Z,20.90
2019-05-19T19:17:59.711Z,20.80
2019-05-19T19:20:01.382Z,20.70
2019-05-19T19:22:03.065Z,20.60
2019-05-19T19:24:04.731Z,20.50
2019-05-19T19:26:06.388Z,20.40
2019-05-19T19:28:08.091Z,20.30
2019-05-19T19:30:10.143Z,20.20
2019-05-19T19:32:12.116Z,20.20
2019-05-19T19:34:13.777Z,20.10
2019-05-19T19:36:15.448Z,20.10
2019-05-19T19:38:17.133Z,20.00
2019-05-19T19:40:27.016Z,20.00
2019-05-19T19:42:28.684Z,19.90
2019-05-19T19:44:30.373Z,19.90
2019-05-19T19:46:32.053Z,19.90
2019-05-19T19:48:34.022Z,19.80
2019-05-19T19:50:35.694Z,19.60
2019-05-19T19:52:37.366Z,19.60
2019-05-19T19:54:39.034Z,19.60
2019-05-19T19:56:40.742Z,19.50
2019-05-19T19:58:42.412Z,19.50
2019-05-19T20:00:44.097Z,19.40
2019-05-19T20:02:45.769Z,19.30
2019-05-19T20:04:47.436Z,19.20
2019-05-19T20:06:49.409Z,19.20
2019-05-19T20:08:51.476Z,19.10
2019-05-19T20:10:53.217Z,19.10
2019-05-19T20:12:54.915Z,19.10
2019-05-19T20:14:56.660Z,19.10
2019-05-19T20:16:58.449Z,19.00
2019-05-19T20:19:00.132Z,19.00
2019-05-19T20:21:01.802Z,18.90
2019-05-19T20:23:03.486Z,18.80
2019-05-19T20:25:05.181Z,18.70
2019-05-19T20:27:07.146Z,18.70
2019-05-19T20:29:08.813Z,18.60
2019-05-19T20:31:10.479Z,18.60
2019-05-19T20:33:12.155Z,18.60
2019-05-19T20:35:14.153Z,18.50
2019-05-19T20:37:15.828Z,18.40
2019-05-19T20:39:17.502Z,18.30
2019-05-19T20:41:19.176Z,18.30
2019-05-19T20:43:20.847Z,18.30
2019-05-19T20:45:22.517Z,18.30
2019-05-19T20:47:24.197Z,18.30
2019-05-19T20:49:26.137Z,18.20
2019-05-19T20:51:29.719Z,18.20
2019-05-19T20:53:31.484Z,18.10
2019-05-19T20:55:33.455Z,18.10
2019-05-19T20:57:35.414Z,18.10
2019-05-19T20:59:37.086Z,17.90
2019-05-19T21:01:38.760Z,17.90
2019-05-19T21:03:40.444Z,18.00
2019-05-19T21:05:42.111Z,18.00
2019-05-19T21:07:43.789Z,17.90
2019-05-19T21:09:45.730Z,18.00
2019-05-19T21:11:47.403Z,18.00
2019-05-19T21:13:49.081Z,17.90
2019-05-19T21:15:51.110Z,18.00
2019-05-19T21:17:52.785Z,18.00
2019-05-19T21:19:54.453Z,18.00
2019-05-19T21:21:56.112Z,18.00
2019-05-19T21:23:57.781Z,18.00
2019-05-19T21:25:59.444Z,18.00
2019-05-19T21:28:01.130Z,18.00
2019-05-19T21:30:03.199Z,18.00
2019-05-19T21:32:05.126Z,18.00
2019-05-19T21:34:06.807Z,18.00
2019-05-19T21:36:09.113Z,17.90
2019-05-19T21:38:10.817Z,17.90
2019-05-19T21:40:12.573Z,17.90
2019-05-19T21:42:14.239Z,17.80
2019-05-19T21:44:15.931Z,17.80
2019-05-19T21:46:17.886Z,17.80
2019-05-19T21:48:30.850Z,17.80
2019-05-19T21:50:32.826Z,17.80
2019-05-19T21:52:34.489Z,17.80
2019-05-19T21:54:36.163Z,17.80
2019-05-19T21:56:37.837Z,17.80
2019-05-19T21:58:39.818Z,17.80
2019-05-19T22:00:41.898Z,17.80
2019-05-19T22:02:43.555Z,17.80
2019-05-19T22:04:45.257Z,17.80
2019-05-19T22:06:53.129Z,17.80
2019-05-19T22:08:54.826Z,17.80
2019-05-19T22:10:56.491Z,17.80
2019-05-19T22:12:58.184Z,17.80
2019-05-19T22:14:59.864Z,17.70
2019-05-19T22:17:01.525Z,17.60
2019-05-19T22:19:03.244Z,17.70
2019-05-19T22:21:04.909Z,17.50
2019-05-19T22:23:06.625Z,17.30
2019-05-19T22:25:08.373Z,17.10
2019-05-19T22:27:10.034Z,16.90
2019-05-19T22:29:11.713Z,16.90
2019-05-19T22:31:13.373Z,16.80
2019-05-19T22:33:15.077Z,16.70
2019-05-19T22:35:16.741Z,16.60
2019-05-19T22:37:18.425Z,16.60
2019-05-19T22:39:20.100Z,16.60
2019-05-19T22:41:21.762Z,16.40
2019-05-19T22:43:23.533Z,16.50
2019-05-19T22:45:25.200Z,16.50
2019-05-19T22:47:26.870Z,16.50
2019-05-19T22:49:28.788Z,16.50
2019-05-19T22:51:30.459Z,16.50
2019-05-19T22:53:32.682Z,16.50
2019-05-19T22:55:34.703Z,16.50
2019-05-19T22:57:36.420Z,16.50
2019-05-19T22:59:38.132Z,16.50
2019-05-19T23:01:51.099Z,16.50
2019-05-19T23:03:43.637Z,16.50
2019-05-19T23:05:45.300Z,16.50
2019-05-19T23:07:46.969Z,16.50
2019-05-19T23:09:48.646Z,16.40
2019-05-19T23:11:50.309Z,16.40
2019-05-19T23:13:51.976Z,16.40
2019-05-19T23:15:53.952Z,16.40
2019-05-19T23:17:55.622Z,16.30
2019-05-19T23:19:57.296Z,16.30
2019-05-19T23:21:58.962Z,16.20
2019-05-19T23:24:00.637Z,16.20
2019-05-19T23:26:02.372Z,16.10
2019-05-19T23:28:04.117Z,16.10
2019-05-19T23:30:05.936Z,16.00
2019-05-19T23:32:07.719Z,16.00
2019-05-19T23:34:09.466Z,16.00
2019-05-19T23:36:11.126Z,16.00
2019-05-19T23:38:12.789Z,16.00
2019-05-19T23:40:14.456Z,15.90
2019-05-19T23:42:16.133Z,15.90
2019-05-19T23:44:18.117Z,15.90
2019-05-19T23:46:19.785Z,15.80
2019-05-19T23:48:21.437Z,15.80
2019-05-19T23:50:23.364Z,15.70
2019-05-19T23:52:25.025Z,15.60
2019-05-19T23:54:26.983Z,15.50
2019-05-19T23:56:28.649Z,15.50
2019-05-19T23:58:30.304Z,15.50
